sensor_id;sensor_type;location;lat;lon;timestamp;pressure;altitude;pressure_sealevel;temperature;humidity
42067;BME280;27734;47.028;28.820;2023-05-14T00:01:52;101233.17;;;12.53;52.66
42067;BME280;27734;47.028;28.820;2023-05-14T00:04:21;101241.83;;;12.50;52.63
42067;BME280;27734;47.028;28.820;2023-05-14T00:06:50;101239.84;;;12.45;52.97
42067;BME280;27734;47.028;28.820;2023-05-14T00:09:19;101242.29;;;12.40;52.99
42067;BME280;27734;47.028;28.820;2023-05-14T00:11:47;101243.78;;;12.33;53.10
42067;BME280;27734;47.028;28.820;2023-05-14T00:14:16;101243.54;;;12.27;53.51
42067;BME280;27734;47.028;28.820;2023-05-14T00:16:44;101236.28;;;12.21;53.46
42067;BME280;27734;47.028;28.820;2023-05-14T00:19:13;101239.52;;;12.14;54.17
42067;BME280;27734;47.028;28.820;2023-05-14T00:21:41;101243.51;;;12.04;54.06
42067;BME280;27734;47.028;28.820;2023-05-14T00:24:10;101239.57;;;11.95;54.19
42067;BME280;27734;47.028;28.820;2023-05-14T00:26:38;101245.39;;;11.87;54.69
42067;BME280;27734;47.028;28.820;2023-05-14T00:29:07;101249.34;;;11.78;55.14
42067;BME280;27734;47.028;28.820;2023-05-14T00:31:35;101247.98;;;11.66;55.43
42067;BME280;27734;47.028;28.820;2023-05-14T00:34:04;101251.14;;;11.58;55.54
42067;BME280;27734;47.028;28.820;2023-05-14T00:36:33;101250.02;;;11.53;55.43
42067;BME280;27734;47.028;28.820;2023-05-14T00:39:01;101248.86;;;11.46;55.73
42067;BME280;27734;47.028;28.820;2023-05-14T00:41:30;101253.91;;;11.41;56.32
42067;BME280;27734;47.028;28.820;2023-05-14T00:43:58;101249.27;;;11.36;55.80
42067;BME280;27734;47.028;28.820;2023-05-14T00:46:27;101244.66;;;11.30;55.99
42067;BME280;27734;47.028;28.820;2023-05-14T00:48:56;101247.08;;;11.25;56.32
42067;BME280;27734;47.028;28.820;2023-05-14T00:51:25;101249.50;;;11.21;56.39
42067;BME280;27734;47.028;28.820;2023-05-14T00:53:54;101245.88;;;11.19;56.96
42067;BME280;27734;47.028;28.820;2023-05-14T00:56:23;101238.78;;;11.16;56.51
42067;BME280;27734;47.028;28.820;2023-05-14T00:58:52;101247.48;;;11.15;56.31
42067;BME280;27734;47.028;28.820;2023-05-14T01:01:20;101242.16;;;11.13;56.59
42067;BME280;27734;47.028;28.820;2023-05-14T01:03:49;101242.70;;;11.06;56.94
42067;BME280;27734;47.028;28.820;2023-05-14T01:06:26;101238.02;;;10.99;56.95
42067;BME280;27734;47.028;28.820;2023-05-14T01:09:02;101240.29;;;10.91;58.25
42067;BME280;27734;47.028;28.820;2023-05-14T01:11:38;101242.56;;;10.84;57.65
42067;BME280;27734;47.028;28.820;2023-05-14T01:14:13;101237.84;;;10.76;57.75
42067;BME280;27734;47.028;28.820;2023-05-14T01:16:45;101244.69;;;10.73;57.87
42067;BME280;27734;47.028;28.820;2023-05-14T01:19:21;101238.41;;;10.69;57.66
42067;BME280;27734;47.028;28.820;2023-05-14T01:21:54;101237.41;;;10.67;58.46
42067;BME280;27734;47.028;28.820;2023-05-14T01:24:23;101231.20;;;10.65;58.07
42067;BME280;27734;47.028;28.820;2023-05-14T01:26:52;101233.89;;;10.67;57.94
42067;BME280;27734;47.028;28.820;2023-05-14T01:29:25;101233.16;;;10.69;58.02
42067;BME280;27734;47.028;28.820;2023-05-14T01:31:56;101233.16;;;10.69;58.09
42067;BME280;27734;47.028;28.820;2023-05-14T01:34:28;101236.73;;;10.71;58.00
42067;BME280;27734;47.028;28.820;2023-05-14T01:36:58;101236.59;;;10.68;58.01
42067;BME280;27734;47.028;28.820;2023-05-14T01:39:28;101231.27;;;10.67;58.31
42067;BME280;27734;47.028;28.820;2023-05-14T01:41:59;101236.45;;;10.65;58.41
42067;BME280;27734;47.028;28.820;2023-05-14T01:44:29;101235.48;;;10.63;58.38
42067;BME280;27734;47.028;28.820;2023-05-14T01:46:59;101237.19;;;10.63;59.27
42067;BME280;27734;47.028;28.820;2023-05-14T01:49:28;101233.53;;;10.59;59.16
42067;BME280;27734;47.028;28.820;2023-05-14T01:51:56;101238.56;;;10.54;58.57
42067;BME280;27734;47.028;28.820;2023-05-14T01:54:25;101239.34;;;10.52;59.63
42067;BME280;27734;47.028;28.820;2023-05-14T01:56:53;101238.34;;;10.50;59.97
42067;BME280;27734;47.028;28.820;2023-05-14T01:59:22;101232.95;;;10.47;59.09
42067;BME280;27734;47.028;28.820;2023-05-14T02:01:51;101243.30;;;10.43;59.26
42067;BME280;27734;47.028;28.820;2023-05-14T02:04:19;101240.45;;;10.39;60.18
42067;BME280;27734;47.028;28.820;2023-05-14T02:06:48;101240.96;;;10.32;60.20
42067;BME280;27734;47.028;28.820;2023-05-14T02:09:16;101241.55;;;10.26;59.50
42067;BME280;27734;47.028;28.820;2023-05-14T02:11:45;101238.70;;;10.21;60.42
42067;BME280;27734;47.028;28.820;2023-05-14T02:14:13;101235.12;;;10.19;60.38
42067;BME280;27734;47.028;28.820;2023-05-14T02:16:42;101235.86;;;10.17;60.56
42067;BME280;27734;47.028;28.820;2023-05-14T02:19:10;101238.33;;;10.14;60.51
42067;BME280;27734;47.028;28.820;2023-05-14T02:21:39;101242.76;;;10.15;59.87
42067;BME280;27734;47.028;28.820;2023-05-14T02:24:07;101240.29;;;10.18;60.58
42067;BME280;27734;47.028;28.820;2023-05-14T02:26:36;101238.62;;;10.20;60.64
42067;BME280;27734;47.028;28.820;2023-05-14T02:29:04;101244.91;;;10.23;60.14
42067;BME280;27734;47.028;28.820;2023-05-14T02:31:33;101244.17;;;10.26;60.41
42067;BME280;27734;47.028;28.820;2023-05-14T02:34:02;101239.81;;;10.26;60.26
42067;BME280;27734;47.028;28.820;2023-05-14T02:36:31;101237.97;;;10.24;60.66
42067;BME280;27734;47.028;28.820;2023-05-14T02:39:00;101243.72;;;10.17;60.96
42067;BME280;27734;47.028;28.820;2023-05-14T02:41:28;101247.85;;;10.12;60.79
42067;BME280;27734;47.028;28.820;2023-05-14T02:43:57;101244.08;;;10.06;61.07
42067;BME280;27734;47.028;28.820;2023-05-14T02:46:26;101254.30;;;10.00;61.31
42067;BME280;27734;47.028;28.820;2023-05-14T02:48:56;101253.14;;;9.95;62.18
42067;BME280;27734;47.028;28.820;2023-05-14T02:51:24;101249.40;;;9.90;61.46
42067;BME280;27734;47.028;28.820;2023-05-14T02:53:53;101245.73;;;9.86;61.56
42067;BME280;27734;47.028;28.820;2023-05-14T02:56:22;101246.47;;;9.84;61.54
42067;BME280;27734;47.028;28.820;2023-05-14T02:58:50;101242.11;;;9.84;62.01
42067;BME280;27734;47.028;28.820;2023-05-14T03:01:19;101251.71;;;9.84;62.24
42067;BME280;27734;47.028;28.820;2023-05-14T03:03:48;101255.14;;;9.83;62.33
42067;BME280;27734;47.028;28.820;2023-05-14T03:06:16;101256.06;;;9.83;62.48
42067;BME280;27734;47.028;28.820;2023-05-14T03:08:45;101255.91;;;9.80;61.92
42067;BME280;27734;47.028;28.820;2023-05-14T03:11:13;101251.63;;;9.82;61.99
42067;BME280;27734;47.028;28.820;2023-05-14T03:13:42;101259.66;;;9.85;62.99
42067;BME280;27734;47.028;28.820;2023-05-14T03:16:15;101256.30;;;9.88;62.47
42067;BME280;27734;47.028;28.820;2023-05-14T03:19:49;101262.66;;;9.93;62.82
42067;BME280;27734;47.028;28.820;2023-05-14T03:22:17;101255.34;;;10.04;62.77
42067;BME280;27734;47.028;28.820;2023-05-14T03:24:46;101259.08;;;10.09;63.27
42067;BME280;27734;47.028;28.820;2023-05-14T03:27:14;101253.75;;;10.07;63.03
42067;BME280;27734;47.028;28.820;2023-05-14T03:29:43;101270.30;;;10.06;64.08
42067;BME280;27734;47.028;28.820;2023-05-14T03:32:11;101269.48;;;10.07;64.13
42067;BME280;27734;47.028;28.820;2023-05-14T03:34:40;101270.30;;;10.06;63.89
42067;BME280;27734;47.028;28.820;2023-05-14T03:37:08;101275.62;;;10.08;64.00
42067;BME280;27734;47.028;28.820;2023-05-14T03:39:37;101279.09;;;10.07;64.29
42067;BME280;27734;47.028;28.820;2023-05-14T03:42:06;101284.41;;;10.08;63.52
42067;BME280;27734;47.028;28.820;2023-05-14T03:44:34;101285.53;;;10.14;63.82
42067;BME280;27734;47.028;28.820;2023-05-14T03:47:05;101281.56;;;10.22;64.00
42067;BME280;27734;47.028;28.820;2023-05-14T03:49:33;101289.81;;;10.30;63.84
42067;BME280;27734;47.028;28.820;2023-05-14T03:52:02;101282.02;;;10.31;63.59
42067;BME280;27734;47.028;28.820;2023-05-14T03:54:31;101275.33;;;10.36;64.09
42067;BME280;27734;47.028;28.820;2023-05-14T03:57:01;101286.12;;;10.42;63.72
42067;BME280;27734;47.028;28.820;2023-05-14T03:59:29;101282.80;;;10.47;63.41
42067;BME280;27734;47.028;28.820;2023-05-14T04:01:58;101281.32;;;10.52;63.81
42067;BME280;27734;47.028;28.820;2023-05-14T04:04:26;101282.21;;;10.52;63.63
42067;BME280;27734;47.028;28.820;2023-05-14T04:06:56;101277.11;;;10.55;64.20
42067;BME280;27734;47.028;28.820;2023-05-14T04:09:24;101278.14;;;10.59;63.63
42067;BME280;27734;47.028;28.820;2023-05-14T04:11:53;101287.28;;;10.67;63.88
42067;BME280;27734;47.028;28.820;2023-05-14T04:14:21;101281.51;;;10.74;63.84
42067;BME280;27734;47.028;28.820;2023-05-14T04:16:50;101278.42;;;10.83;64.24
42067;BME280;27734;47.028;28.820;2023-05-14T04:19:19;101285.00;;;10.93;64.09
42067;BME280;27734;47.028;28.820;2023-05-14T04:21:47;101279.15;;;10.99;63.95
42067;BME280;27734;47.028;28.820;2023-05-14T04:24:16;101281.28;;;11.07;64.13
42067;BME280;27734;47.028;28.820;2023-05-14T04:26:45;101279.82;;;11.14;64.06
42067;BME280;27734;47.028;28.820;2023-05-14T04:29:13;101273.00;;;11.18;64.34
42067;BME280;27734;47.028;28.820;2023-05-14T04:31:43;101283.86;;;11.25;63.79
42067;BME280;27734;47.028;28.820;2023-05-14T04:34:11;101281.45;;;11.30;63.80
42067;BME280;27734;47.028;28.820;2023-05-14T04:36:40;101280.13;;;11.40;64.03
42067;BME280;27734;47.028;28.820;2023-05-14T04:39:08;101282.95;;;11.44;64.11
42067;BME280;27734;47.028;28.820;2023-05-14T04:41:44;101280.46;;;11.47;63.80
42067;BME280;27734;47.028;28.820;2023-05-14T04:44:14;101279.84;;;11.53;64.03
42067;BME280;27734;47.028;28.820;2023-05-14T04:46:43;101288.05;;;11.61;63.65
42067;BME280;27734;47.028;28.820;2023-05-14T04:49:12;101283.05;;;11.67;63.79
42067;BME280;27734;47.028;28.820;2023-05-14T04:51:40;101286.80;;;11.72;63.40
42067;BME280;27734;47.028;28.820;2023-05-14T04:54:09;101277.51;;;11.80;63.65
42067;BME280;27734;47.028;28.820;2023-05-14T04:56:38;101282.28;;;11.89;63.55
42067;BME280;27734;47.028;28.820;2023-05-14T04:59:07;101282.70;;;11.98;63.42
42067;BME280;27734;47.028;28.820;2023-05-14T05:01:35;101285.66;;;12.06;63.40
42067;BME280;27734;47.028;28.820;2023-05-14T05:04:04;101277.30;;;12.16;63.46
42067;BME280;27734;47.028;28.820;2023-05-14T05:06:32;101278.56;;;12.26;63.34
42067;BME280;27734;47.028;28.820;2023-05-14T05:09:01;101278.89;;;12.34;63.51
42067;BME280;27734;47.028;28.820;2023-05-14T05:11:29;101286.20;;;12.41;63.33
42067;BME280;27734;47.028;28.820;2023-05-14T05:13:58;101287.34;;;12.48;63.21
42067;BME280;27734;47.028;28.820;2023-05-14T05:16:26;101287.72;;;12.57;63.30
42067;BME280;27734;47.028;28.820;2023-05-14T05:18:55;101282.82;;;12.66;63.41
42067;BME280;27734;47.028;28.820;2023-05-14T05:21:24;101284.07;;;12.76;63.09
42067;BME280;27734;47.028;28.820;2023-05-14T05:23:52;101282.78;;;12.87;63.06
42067;BME280;27734;47.028;28.820;2023-05-14T05:26:21;101279.58;;;12.96;63.04
42067;BME280;27734;47.028;28.820;2023-05-14T05:28:49;101273.89;;;13.08;63.11
42067;BME280;27734;47.028;28.820;2023-05-14T05:31:18;101281.34;;;13.20;63.10
42067;BME280;27734;47.028;28.820;2023-05-14T05:33:47;101279.91;;;13.28;62.62
42067;BME280;27734;47.028;28.820;2023-05-14T05:36:15;101282.98;;;13.39;62.87
42067;BME280;27734;47.028;28.820;2023-05-14T05:38:44;101278.16;;;13.51;62.25
42067;BME280;27734;47.028;28.820;2023-05-14T05:41:12;101280.31;;;13.63;62.49
42067;BME280;27734;47.028;28.820;2023-05-14T05:43:41;101282.56;;;13.76;62.49
42067;BME280;27734;47.028;28.820;2023-05-14T05:46:09;101282.13;;;13.90;62.67
42067;BME280;27734;47.028;28.820;2023-05-14T05:48:38;101282.50;;;14.00;62.06
42067;BME280;27734;47.028;28.820;2023-05-14T05:51:06;101282.91;;;14.13;61.68
42067;BME280;27734;47.028;28.820;2023-05-14T05:53:35;101279.80;;;14.25;61.72
42067;BME280;27734;47.028;28.820;2023-05-14T05:56:04;101284.56;;;14.36;61.94
42067;BME280;27734;47.028;28.820;2023-05-14T05:58:33;101287.61;;;14.49;61.71
42067;BME280;27734;47.028;28.820;2023-05-14T06:01:01;101281.88;;;14.61;61.37
42067;BME280;27734;47.028;28.820;2023-05-14T06:03:30;101277.91;;;14.75;60.76
42067;BME280;27734;47.028;28.820;2023-05-14T06:05:58;101273.94;;;14.89;60.53
42067;BME280;27734;47.028;28.820;2023-05-14T06:08:27;101280.55;;;15.04;60.40
42067;BME280;27734;47.028;28.820;2023-05-14T06:10:55;101283.61;;;15.18;60.29
42067;BME280;27734;47.028;28.820;2023-05-14T06:13:24;101279.66;;;15.34;60.55
42067;BME280;27734;47.028;28.820;2023-05-14T06:15:52;101281.81;;;15.49;60.23
42067;BME280;27734;47.028;28.820;2023-05-14T06:18:21;101279.52;;;15.61;59.45
42067;BME280;27734;47.028;28.820;2023-05-14T06:20:49;101280.77;;;15.74;59.14
42067;BME280;27734;47.028;28.820;2023-05-14T06:23:18;101272.32;;;15.87;58.94
42067;BME280;27734;47.028;28.820;2023-05-14T06:25:46;101262.09;;;16.01;58.47
42067;BME280;27734;47.028;28.820;2023-05-14T06:28:16;101257.15;;;16.15;58.30
42067;BME280;27734;47.028;28.820;2023-05-14T06:30:45;101255.66;;;16.26;57.86
42067;BME280;27734;47.028;28.820;2023-05-14T06:33:13;101253.34;;;16.40;58.02
42067;BME280;27734;47.028;28.820;2023-05-14T06:35:42;101259.81;;;16.53;57.55
42067;BME280;27734;47.028;28.820;2023-05-14T06:38:10;101253.06;;;16.66;57.59
42067;BME280;27734;47.028;28.820;2023-05-14T06:40:39;101249.84;;;16.81;57.45
42067;BME280;27734;47.028;28.820;2023-05-14T06:43:07;101240.50;;;16.97;56.80
42067;BME280;27734;47.028;28.820;2023-05-14T06:45:35;101246.06;;;17.09;56.91
42067;BME280;27734;47.028;28.820;2023-05-14T06:48:04;101241.02;;;17.21;56.43
42067;BME280;27734;47.028;28.820;2023-05-14T06:50:33;101246.63;;;17.37;55.78
42067;BME280;27734;47.028;28.820;2023-05-14T06:53:01;101244.36;;;17.57;55.66
42067;BME280;27734;47.028;28.820;2023-05-14T06:55:30;101241.17;;;17.75;55.61
42067;BME280;27734;47.028;28.820;2023-05-14T06:57:58;101242.22;;;17.85;55.15
42067;BME280;27734;47.028;28.820;2023-05-14T07:00:27;101240.72;;;17.99;54.83
42067;BME280;27734;47.028;28.820;2023-05-14T07:02:56;101237.44;;;18.14;54.93
42067;BME280;27734;47.028;28.820;2023-05-14T07:05:24;101234.14;;;18.30;54.83
42067;BME280;27734;47.028;28.820;2023-05-14T07:07:53;101233.61;;;18.53;54.32
42067;BME280;27734;47.028;28.820;2023-05-14T07:10:22;101227.75;;;18.79;53.50
42067;BME280;27734;47.028;28.820;2023-05-14T07:12:50;101227.13;;;18.95;53.04
42067;BME280;27734;47.028;28.820;2023-05-14T07:15:19;101227.41;;;19.18;52.75
42067;BME280;27734;47.028;28.820;2023-05-14T07:17:48;101231.28;;;19.47;51.04
42067;BME280;27734;47.028;28.820;2023-05-14T07:20:16;101223.44;;;19.61;51.08
42067;BME280;27734;47.028;28.820;2023-05-14T07:22:44;101222.73;;;19.79;51.16
42067;BME280;27734;47.028;28.820;2023-05-14T07:25:13;101214.00;;;19.92;50.74
42067;BME280;27734;47.028;28.820;2023-05-14T07:27:41;101222.05;;;20.00;49.97
42067;BME280;27734;47.028;28.820;2023-05-14T07:30:11;101207.98;;;20.21;50.14
42067;BME280;27734;47.028;28.820;2023-05-14T07:32:40;101216.17;;;20.48;48.77
42067;BME280;27734;47.028;28.820;2023-05-14T07:35:09;101211.81;;;20.63;49.36
42067;BME280;27734;47.028;28.820;2023-05-14T07:37:38;101208.36;;;20.75;49.77
42067;BME280;27734;47.028;28.820;2023-05-14T07:40:09;101211.12;;;20.95;48.96
42067;BME280;27734;47.028;28.820;2023-05-14T07:42:37;101212.95;;;21.05;46.58
42067;BME280;27734;47.028;28.820;2023-05-14T07:45:08;101207.62;;;21.13;47.34
42067;BME280;27734;47.028;28.820;2023-05-14T07:47:37;101204.11;;;21.25;46.82
42067;BME280;27734;47.028;28.820;2023-05-14T07:50:08;101197.94;;;21.40;45.59
42067;BME280;27734;47.028;28.820;2023-05-14T07:55:05;101203.33;;;21.70;45.79
42067;BME280;27734;47.028;28.820;2023-05-14T07:57:34;101205.13;;;21.93;45.16
42067;BME280;27734;47.028;28.820;2023-05-14T08:00:04;101205.13;;;22.10;45.22
42067;BME280;27734;47.028;28.820;2023-05-14T08:02:40;101197.11;;;22.21;43.93
42067;BME280;27734;47.028;28.820;2023-05-14T08:05:09;101203.33;;;22.21;43.16
42067;BME280;27734;47.028;28.820;2023-05-14T08:07:38;101199.80;;;22.33;42.45
42067;BME280;27734;47.028;28.820;2023-05-14T08:10:08;101190.84;;;22.47;42.92
42067;BME280;27734;47.028;28.820;2023-05-14T08:12:37;101201.48;;;22.65;42.49
42067;BME280;27734;47.028;28.820;2023-05-14T08:15:08;101195.22;;;22.77;42.22
42067;BME280;27734;47.028;28.820;2023-05-14T08:17:37;101188.91;;;22.87;41.07
42067;BME280;27734;47.028;28.820;2023-05-14T08:20:09;101187.97;;;23.10;40.45
42067;BME280;27734;47.028;28.820;2023-05-14T08:22:38;101178.87;;;23.37;39.83
42067;BME280;27734;47.028;28.820;2023-05-14T08:25:07;101181.47;;;23.49;39.84
42067;BME280;27734;47.028;28.820;2023-05-14T08:27:36;101174.39;;;23.44;38.30
42067;BME280;27734;47.028;28.820;2023-05-14T08:30:07;101173.44;;;23.48;38.56
42067;BME280;27734;47.028;28.820;2023-05-14T08:32:35;101167.20;;;23.47;38.70
42067;BME280;27734;47.028;28.820;2023-05-14T08:35:06;101171.66;;;23.50;37.83
42067;BME280;27734;47.028;28.820;2023-05-14T08:37:35;101174.31;;;23.55;37.99
42067;BME280;27734;47.028;28.820;2023-05-14T08:40:04;101159.95;;;23.62;37.15
42067;BME280;27734;47.028;28.820;2023-05-14T08:42:37;101172.52;;;23.55;35.83
42067;BME280;27734;47.028;28.820;2023-05-14T08:45:12;101169.82;;;23.57;36.31
42067;BME280;27734;47.028;28.820;2023-05-14T08:47:44;101158.13;;;23.68;36.33
42067;BME280;27734;47.028;28.820;2023-05-14T08:50:14;101156.23;;;23.86;35.78
42067;BME280;27734;47.028;28.820;2023-05-14T08:52:43;101159.72;;;23.94;35.52
42067;BME280;27734;47.028;28.820;2023-05-14T08:55:12;101157.90;;;23.96;35.57
42067;BME280;27734;47.028;28.820;2023-05-14T08:57:40;101153.45;;;23.97;35.20
42067;BME280;27734;47.028;28.820;2023-05-14T09:00:11;101145.37;;;24.01;35.21
42067;BME280;27734;47.028;28.820;2023-05-14T09:02:43;101150.62;;;24.12;34.50
42067;BME280;27734;47.028;28.820;2023-05-14T09:05:12;101150.47;;;24.25;34.27
42067;BME280;27734;47.028;28.820;2023-05-14T09:07:42;101146.81;;;24.33;33.92
42067;BME280;27734;47.028;28.820;2023-05-14T09:10:11;101139.61;;;24.37;33.63
42067;BME280;27734;47.028;28.820;2023-05-14T09:12:39;101143.20;;;24.37;33.90
42067;BME280;27734;47.028;28.820;2023-05-14T09:15:08;101138.78;;;24.32;33.79
42067;BME280;27734;47.028;28.820;2023-05-14T09:17:37;101129.73;;;24.42;33.13
42067;BME280;27734;47.028;28.820;2023-05-14T09:20:09;101138.44;;;24.64;32.90
42067;BME280;27734;47.028;28.820;2023-05-14T09:22:39;101141.73;;;24.86;31.65
42067;BME280;27734;47.028;28.820;2023-05-14T09:25:09;101138.95;;;24.94;31.49
42067;BME280;27734;47.028;28.820;2023-05-14T09:27:39;101135.48;;;24.86;30.99
42067;BME280;27734;47.028;28.820;2023-05-14T09:30:09;101138.17;;;24.86;32.24
42067;BME280;27734;47.028;28.820;2023-05-14T09:32:39;101131.98;;;24.78;31.49
42067;BME280;27734;47.028;28.820;2023-05-14T09:35:12;101136.38;;;24.85;31.61
42067;BME280;27734;47.028;28.820;2023-05-14T09:37:45;101124.56;;;25.00;30.94
42067;BME280;27734;47.028;28.820;2023-05-14T09:40:16;101120.72;;;25.16;31.03
42067;BME280;27734;47.028;28.820;2023-05-14T09:42:44;101112.48;;;25.30;30.60
42067;BME280;27734;47.028;28.820;2023-05-14T09:45:15;101108.73;;;25.42;30.07
42067;BME280;27734;47.028;28.820;2023-05-14T09:47:43;101116.47;;;25.62;30.32
42067;BME280;27734;47.028;28.820;2023-05-14T09:50:12;101119.05;;;25.68;29.73
42067;BME280;27734;47.028;28.820;2023-05-14T09:52:40;101109.16;;;25.70;30.01
42067;BME280;27734;47.028;28.820;2023-05-14T09:55:09;101116.28;;;25.73;29.57
42067;BME280;27734;47.028;28.820;2023-05-14T09:57:38;101125.36;;;25.65;29.54
42067;BME280;27734;47.028;28.820;2023-05-14T10:00:09;101125.43;;;25.61;29.65
42067;BME280;27734;47.028;28.820;2023-05-14T10:02:40;101115.84;;;25.44;29.08
42067;BME280;27734;47.028;28.820;2023-05-14T10:05:11;101115.16;;;25.32;28.86
42067;BME280;27734;47.028;28.820;2023-05-14T10:07:43;101110.68;;;25.30;28.76
42067;BME280;27734;47.028;28.820;2023-05-14T10:10:15;101092.56;;;25.45;28.45
42067;BME280;27734;47.028;28.820;2023-05-14T10:12:47;101103.03;;;25.62;28.88
42067;BME280;27734;47.028;28.820;2023-05-14T10:15:23;101098.30;;;25.76;28.69
42067;BME280;27734;47.028;28.820;2023-05-14T10:17:58;101091.02;;;25.81;27.69
42067;BME280;27734;47.028;28.820;2023-05-14T10:20:28;101097.11;;;25.91;28.14
42067;BME280;27734;47.028;28.820;2023-05-14T10:22:58;101094.36;;;25.94;27.86
42067;BME280;27734;47.028;28.820;2023-05-14T10:25:28;101097.11;;;25.91;27.62
42067;BME280;27734;47.028;28.820;2023-05-14T10:27:57;101099.86;;;25.88;28.06
42067;BME280;27734;47.028;28.820;2023-05-14T10:30:26;101090.80;;;25.94;28.12
42067;BME280;27734;47.028;28.820;2023-05-14T10:33:15;101092.39;;;26.07;27.94
42067;BME280;27734;47.028;28.820;2023-05-14T10:35:54;101091.30;;;26.16;27.82
42067;BME280;27734;47.028;28.820;2023-05-14T10:38:26;101086.68;;;26.24;27.79
42067;BME280;27734;47.028;28.820;2023-05-14T10:40:57;101082.95;;;26.30;27.36
42067;BME280;27734;47.028;28.820;2023-05-14T10:43:26;101072.33;;;26.24;26.72
42067;BME280;27734;47.028;28.820;2023-05-14T10:45:58;101076.70;;;26.29;26.47
42067;BME280;27734;47.028;28.820;2023-05-14T10:48:27;101076.52;;;26.39;26.70
42067;BME280;27734;47.028;28.820;2023-05-14T10:50:57;101080.08;;;26.39;26.48
42067;BME280;27734;47.028;28.820;2023-05-14T10:53:35;101076.29;;;26.49;26.23
42067;BME280;27734;47.028;28.820;2023-05-14T10:56:06;101073.50;;;26.54;26.13
42067;BME280;27734;47.028;28.820;2023-05-14T10:58:37;101076.16;;;26.55;26.24
42067;BME280;27734;47.028;28.820;2023-05-14T11:01:08;101071.72;;;26.53;25.88
42067;BME280;27734;47.028;28.820;2023-05-14T11:03:41;101074.28;;;26.59;26.31
42067;BME280;27734;47.028;28.820;2023-05-14T11:06:12;101073.05;;;26.33;25.54
42067;BME280;27734;47.028;28.820;2023-05-14T11:08:41;101074.59;;;26.00;25.96
42067;BME280;27734;47.028;28.820;2023-05-14T11:11:12;101072.52;;;25.64;25.22
42067;BME280;27734;47.028;28.820;2023-05-14T11:13:40;101068.56;;;25.34;25.71
42067;BME280;27734;47.028;28.820;2023-05-14T11:16:10;101060.87;;;25.09;25.53
42067;BME280;27734;47.028;28.820;2023-05-14T11:18:39;101065.61;;;24.92;25.47
42067;BME280;27734;47.028;28.820;2023-05-14T11:21:08;101062.40;;;24.67;25.37
42067;BME280;27734;47.028;28.820;2023-05-14T11:23:37;101056.33;;;24.48;25.47
42067;BME280;27734;47.028;28.820;2023-05-14T11:26:06;101059.05;;;24.45;25.57
42067;BME280;27734;47.028;28.820;2023-05-14T11:28:35;101057.30;;;24.44;25.75
42067;BME280;27734;47.028;28.820;2023-05-14T11:31:05;101057.41;;;24.34;25.60
42067;BME280;27734;47.028;28.820;2023-05-14T11:33:33;101054.77;;;24.31;25.55
42067;BME280;27734;47.028;28.820;2023-05-14T11:36:04;101055.62;;;24.33;25.85
42067;BME280;27734;47.028;28.820;2023-05-14T11:38:33;101050.30;;;24.30;25.33
42067;BME280;27734;47.028;28.820;2023-05-14T11:41:01;101052.03;;;24.36;25.38
42067;BME280;27734;47.028;28.820;2023-05-14T11:43:31;101046.69;;;24.34;25.27
42067;BME280;27734;47.028;28.820;2023-05-14T11:46:03;101044.03;;;24.33;24.90
42067;BME280;27734;47.028;28.820;2023-05-14T11:48:33;101047.59;;;24.33;25.47
42067;BME280;27734;47.028;28.820;2023-05-14T11:51:03;101043.14;;;24.31;25.45
42067;BME280;27734;47.028;28.820;2023-05-14T11:53:31;101042.22;;;24.33;25.23
42067;BME280;27734;47.028;28.820;2023-05-14T11:56:00;101044.00;;;24.34;25.58
42067;BME280;27734;47.028;28.820;2023-05-14T11:58:32;101040.41;;;24.34;25.32
42067;BME280;27734;47.028;28.820;2023-05-14T12:01:00;101039.52;;;24.35;25.39
42067;BME280;27734;47.028;28.820;2023-05-14T12:03:30;101037.75;;;24.32;25.07
42067;BME280;27734;47.028;28.820;2023-05-14T12:06:00;101030.62;;;24.33;25.62
42067;BME280;27734;47.028;28.820;2023-05-14T12:08:30;101028.70;;;24.43;25.56
42067;BME280;27734;47.028;28.820;2023-05-14T12:10:59;101030.34;;;24.54;25.64
42067;BME280;27734;47.028;28.820;2023-05-14T12:13:29;101023.80;;;24.75;25.28
42067;BME280;27734;47.028;28.820;2023-05-14T12:15:59;101020.78;;;24.97;25.01
42067;BME280;27734;47.028;28.820;2023-05-14T12:18:29;101006.22;;;25.14;25.34
42067;BME280;27734;47.028;28.820;2023-05-14T12:21:02;101023.75;;;25.36;25.29
42067;BME280;27734;47.028;28.820;2023-05-14T12:23:32;101017.16;;;25.56;25.24
42067;BME280;27734;47.028;28.820;2023-05-14T12:26:07;101012.52;;;25.64;24.81
42067;BME280;27734;47.028;28.820;2023-05-14T12:28:38;101004.16;;;25.79;25.39
42067;BME280;27734;47.028;28.820;2023-05-14T12:31:08;101006.70;;;25.87;23.10
42067;BME280;27734;47.028;28.820;2023-05-14T12:33:37;100999.45;;;25.91;25.08
42067;BME280;27734;47.028;28.820;2023-05-14T12:36:06;100999.64;;;25.81;24.53
42067;BME280;27734;47.028;28.820;2023-05-14T12:38:36;100996.83;;;25.88;24.63
42067;BME280;27734;47.028;28.820;2023-05-14T12:41:07;100994.86;;;25.97;24.58
42067;BME280;27734;47.028;28.820;2023-05-14T12:43:36;100991.92;;;26.10;24.53
42067;BME280;27734;47.028;28.820;2023-05-14T12:46:04;100984.60;;;26.18;24.40
42067;BME280;27734;47.028;28.820;2023-05-14T12:48:33;100974.75;;;26.17;24.21
42067;BME280;27734;47.028;28.820;2023-05-14T12:51:01;100974.72;;;26.18;24.11
42067;BME280;27734;47.028;28.820;2023-05-14T12:53:30;100978.16;;;26.25;23.77
42067;BME280;27734;47.028;28.820;2023-05-14T12:55:58;100965.61;;;26.26;23.83